Time;durP1;ratioP1;P1;durP2;ratioP2;P2;SDS_P1;SDS_P2;PMS_P1;PMS_P2;Temp;Humidity;BMP_temperature;BMP_pressure;BME280_temperature;BME280_humidity;BME280_pressure;Samples;Min_cycle;Max_cycle;Signal;HPM_P1;HPM_P2
2022/07/13 00:00:12;;;;;;;8.52;7.15;;;21.90;99.90;;;;;;5067377;28;20032;-49
2022/07/13 00:02:38;;;;;;;8.30;7.20;;;21.90;99.90;;;;;;5044893;28;20088;-51
2022/07/13 00:05:06;;;;;;;8.25;7.20;;;21.90;99.90;;;;;;5052742;28;20493;-48
2022/07/13 00:07:32;;;;;;;13.75;7.63;;;21.90;99.90;;;;;;5070951;28;20095;-49
2022/07/13 00:09:58;;;;;;;9.60;7.22;;;21.80;99.90;;;;;;5070765;28;20040;-51
2022/07/13 00:12:24;;;;;;;8.48;6.90;;;21.80;99.90;;;;;;5070293;28;20036;-51
2022/07/13 00:14:50;;;;;;;8.35;7.25;;;21.80;99.90;;;;;;5070863;28;20047;-51
2022/07/13 00:17:16;;;;;;;10.55;7.68;;;21.70;99.90;;;;;;5070772;28;20121;-48
2022/07/13 00:19:42;;;;;;;9.10;7.65;;;21.70;99.90;;;;;;5071095;28;20510;-51
2022/07/13 00:22:07;;;;;;;9.88;7.63;;;21.70;99.90;;;;;;5070452;28;20040;-52
2022/07/13 00:24:33;;;;;;;9.68;7.20;;;21.70;99.90;;;;;;5070748;28;20044;-51
2022/07/13 00:26:59;;;;;;;9.50;7.38;;;21.70;99.90;;;;;;5070879;28;20041;-49
2022/07/13 00:29:24;;;;;;;9.90;7.65;;;21.70;99.90;;;;;;5070630;28;20090;-50
2022/07/13 00:31:50;;;;;;;9.18;8.02;;;21.60;99.90;;;;;;5070378;28;20032;-52
2022/07/13 00:34:15;;;;;;;9.32;8.23;;;21.60;99.90;;;;;;5070577;28;20039;-51
2022/07/13 00:36:41;;;;;;;8.50;7.43;;;21.60;99.90;;;;;;5070774;28;20040;-51
2022/07/13 00:39:07;;;;;;;8.82;7.93;;;21.60;99.90;;;;;;5052403;28;20041;-49
2022/07/13 00:41:33;;;;;;;10.32;8.00;;;21.50;99.90;;;;;;5071018;28;20102;-48
2022/07/13 00:44:08;;;;;;;10.23;9.05;;;21.50;99.90;;;;;;5070331;28;20231;-51
2022/07/13 00:46:35;;;;;;;11.73;8.98;;;21.50;99.90;;;;;;5070359;28;20079;-52
2022/07/13 00:49:02;;;;;;;11.93;8.93;;;21.40;99.90;;;;;;5069956;28;20040;-51
2022/07/13 00:51:28;;;;;;;11.02;8.80;;;21.40;99.90;;;;;;5070646;28;20076;-52
2022/07/13 00:53:54;;;;;;;10.77;9.10;;;21.30;99.90;;;;;;5070207;28;20055;-51
2022/07/13 00:56:20;;;;;;;13.07;9.00;;;21.20;99.90;;;;;;5070371;28;20074;-53
2022/07/13 00:58:46;;;;;;;11.50;8.43;;;21.30;99.90;;;;;;5070061;28;20569;-49
2022/07/13 01:01:12;;;;;;;9.82;8.40;;;21.20;99.90;;;;;;5070885;28;20048;-52
2022/07/13 01:03:38;;;;;;;9.80;8.27;;;21.20;99.90;;;;;;5073657;28;20086;-50
2022/07/13 01:06:05;;;;;;;10.43;9.15;;;21.30;99.90;;;;;;5056483;28;20036;-49
2022/07/13 01:08:33;;;;;;;10.15;8.05;;;21.30;99.90;;;;;;5073740;28;20048;-50
2022/07/13 01:10:59;;;;;;;10.95;8.63;;;21.30;99.90;;;;;;5073836;28;20047;-47
2022/07/13 01:13:25;;;;;;;9.48;8.32;;;21.30;99.90;;;;;;5073761;28;20029;-49
2022/07/13 01:15:51;;;;;;;11.05;8.93;;;21.30;99.90;;;;;;5073852;28;20111;-49
2022/07/13 01:18:17;;;;;;;11.23;8.93;;;21.30;99.90;;;;;;5074031;28;20594;-49
2022/07/13 01:20:43;;;;;;;11.50;8.88;;;21.30;99.90;;;;;;5073330;28;20051;-49
2022/07/13 01:23:14;;;;;;;8.63;7.70;;;21.30;99.90;;;;;;5073594;28;20064;-48
2022/07/13 01:25:41;;;;;;;10.10;7.70;;;21.30;99.90;;;;;;5073768;28;20125;-51
2022/07/13 01:28:07;;;;;;;10.23;7.80;;;21.30;99.90;;;;;;5073542;28;20174;-49
2022/07/13 01:30:33;;;;;;;9.40;7.75;;;21.30;99.90;;;;;;5073205;28;20066;-52
2022/07/13 01:32:59;;;;;;;9.57;7.53;;;21.20;99.90;;;;;;5073394;28;20036;-51
2022/07/13 01:35:26;;;;;;;9.57;7.85;;;21.20;99.90;;;;;;5073739;28;20502;-51
2022/07/13 01:37:53;;;;;;;9.70;7.97;;;21.20;99.90;;;;;;5073233;28;20040;-51
2022/07/13 01:40:20;;;;;;;10.38;8.07;;;21.20;99.90;;;;;;5055473;28;20048;-53
2022/07/13 01:42:48;;;;;;;8.95;7.38;;;21.10;99.90;;;;;;5073128;28;20048;-52
2022/07/13 01:45:15;;;;;;;9.93;7.57;;;21.10;99.90;;;;;;5073449;28;20032;-51
2022/07/13 01:47:43;;;;;;;9.40;6.60;;;21.10;99.90;;;;;;5072396;28;20387;-52
2022/07/13 01:50:11;;;;;;;9.15;7.03;;;21.10;99.90;;;;;;5072923;28;20040;-52
2022/07/13 01:52:37;;;;;;;9.52;7.10;;;21.10;99.90;;;;;;5073386;28;20037;-49
2022/07/13 01:55:04;;;;;;;9.13;7.18;;;21.20;99.90;;;;;;5072866;28;20040;-48
2022/07/13 01:57:30;;;;;;;9.90;6.68;;;21.20;99.90;;;;;;5072666;28;20096;-50
2022/07/13 02:00:01;;;;;;;9.13;6.43;;;21.20;99.90;;;;;;5072299;28;20048;-48
2022/07/13 02:02:27;;;;;;;7.72;6.20;;;21.10;99.90;;;;;;5072799;28;20036;-47
2022/07/13 02:04:54;;;;;;;7.18;5.80;;;21.10;99.90;;;;;;5072570;28;20047;-48
2022/07/13 02:07:21;;;;;;;10.02;6.40;;;21.20;99.90;;;;;;5073050;28;20538;-48
2022/07/13 02:09:47;;;;;;;7.38;6.10;;;21.20;99.90;;;;;;5073094;28;20090;-52
2022/07/13 02:12:13;;;;;;;7.82;5.80;;;21.10;99.90;;;;;;5072647;28;20431;-50
2022/07/13 02:14:38;;;;;;;7.70;6.20;;;21.20;99.90;;;;;;5072781;28;20119;-51
2022/07/13 02:17:04;;;;;;;9.82;5.80;;;21.10;99.90;;;;;;5072851;28;20039;-48
2022/07/13 02:19:30;;;;;;;8.30;6.13;;;21.20;99.90;;;;;;5072792;28;20040;-50
2022/07/13 02:21:55;;;;;;;7.78;6.60;;;21.10;99.90;;;;;;5072508;28;20085;-52
2022/07/13 02:24:21;;;;;;;7.90;6.40;;;21.10;99.90;;;;;;5072441;28;20044;-52
2022/07/13 02:26:47;;;;;;;11.90;6.60;;;21.10;99.90;;;;;;5072711;28;20132;-50
2022/07/13 02:29:12;;;;;;;10.48;6.45;;;21.10;99.90;;;;;;5072430;28;20115;-51
2022/07/13 02:31:38;;;;;;;9.05;6.47;;;21.10;99.90;;;;;;5071956;28;20557;-49
2022/07/13 02:34:03;;;;;;;7.57;6.18;;;21.10;99.90;;;;;;5072561;28;20468;-49
2022/07/13 02:36:29;;;;;;;7.57;6.47;;;21.00;99.90;;;;;;5072381;28;20036;-51
2022/07/13 02:38:55;;;;;;;8.00;6.65;;;21.10;99.90;;;;;;5054698;28;20032;-49
2022/07/13 02:41:20;;;;;;;8.65;6.85;;;21.00;99.90;;;;;;5071968;28;20036;-48
2022/07/13 02:43:46;;;;;;;8.73;6.57;;;21.10;99.90;;;;;;5054380;28;20032;-50
2022/07/13 02:46:12;;;;;;;8.98;6.50;;;21.00;99.90;;;;;;5072122;28;20036;-49
2022/07/13 02:48:38;;;;;;;7.95;6.45;;;21.00;99.90;;;;;;5072406;28;20029;-48
2022/07/13 02:51:04;;;;;;;10.30;6.68;;;21.00;99.90;;;;;;5071547;28;20044;-51
2022/07/13 02:53:29;;;;;;;8.23;6.60;;;21.00;99.90;;;;;;5072154;28;20051;-52
2022/07/13 02:55:55;;;;;;;7.30;6.18;;;21.00;99.90;;;;;;5072125;28;20028;-49
2022/07/13 02:58:21;;;;;;;9.15;6.07;;;21.00;99.90;;;;;;5071707;28;20063;-49
2022/07/13 03:00:46;;;;;;;7.57;5.85;;;21.00;99.90;;;;;;5071519;28;20033;-51
2022/07/13 03:03:12;;;;;;;8.60;6.35;;;21.00;99.90;;;;;;5071793;28;20139;-50
2022/07/13 03:05:38;;;;;;;9.35;6.50;;;21.00;99.90;;;;;;5071631;28;20067;-49
2022/07/13 03:08:04;;;;;;;7.78;6.38;;;21.00;99.90;;;;;;5071605;28;20036;-51
2022/07/13 03:10:29;;;;;;;7.50;6.53;;;21.00;99.90;;;;;;5071255;28;20087;-51
2022/07/13 03:12:55;;;;;;;7.97;6.75;;;20.90;99.90;;;;;;5071684;28;20586;-51
2022/07/13 03:15:21;;;;;;;8.90;6.15;;;20.90;99.90;;;;;;5071736;28;20036;-49
2022/07/13 03:17:47;;;;;;;7.18;6.35;;;20.90;99.90;;;;;;5071432;28;20040;-50
2022/07/13 03:20:12;;;;;;;7.88;6.35;;;20.90;99.90;;;;;;5071325;28;20487;-51
2022/07/13 03:22:38;;;;;;;10.73;7.00;;;20.90;99.90;;;;;;5071616;28;20032;-51
2022/07/13 03:25:05;;;;;;;9.18;6.75;;;20.90;99.90;;;;;;5070645;28;20479;-49
2022/07/13 03:27:31;;;;;;;8.93;6.07;;;20.90;99.90;;;;;;5071635;28;20481;-52
2022/07/13 03:29:56;;;;;;;7.72;6.25;;;20.90;99.90;;;;;;5071467;28;20047;-49
2022/07/13 03:32:22;;;;;;;7.45;6.05;;;20.90;99.90;;;;;;5070560;28;20118;-50
2022/07/13 03:34:47;;;;;;;8.02;6.07;;;20.90;99.90;;;;;;5053453;28;20101;-52
2022/07/13 03:37:13;;;;;;;7.97;6.07;;;20.90;99.90;;;;;;5071272;28;20040;-49
2022/07/13 03:39:39;;;;;;;9.48;6.25;;;20.90;99.90;;;;;;5071340;28;20051;-49
2022/07/13 03:42:05;;;;;;;7.18;5.78;;;20.90;99.90;;;;;;5071066;28;20418;-50
2022/07/13 03:44:31;;;;;;;6.78;5.47;;;20.90;99.90;;;;;;5053725;28;20390;-52
2022/07/13 03:46:57;;;;;;;8.20;5.90;;;20.90;99.90;;;;;;5070742;28;20036;-51
2022/07/13 03:49:23;;;;;;;9.48;5.80;;;20.90;99.90;;;;;;5071306;28;20549;-49
2022/07/13 03:51:48;;;;;;;9.07;5.90;;;20.90;99.90;;;;;;5070834;28;20036;-49
2022/07/13 03:54:14;;;;;;;8.30;5.90;;;20.90;99.90;;;;;;5071272;28;20527;-50
2022/07/13 03:56:40;;;;;;;10.27;6.03;;;20.90;99.90;;;;;;5071194;28;20480;-50
2022/07/13 03:59:06;;;;;;;8.57;5.93;;;20.90;99.90;;;;;;5070835;28;20090;-50
2022/07/13 04:01:32;;;;;;;10.25;6.65;;;20.80;99.90;;;;;;5070437;28;20064;-52
2022/07/13 04:03:58;;;;;;;7.93;6.43;;;20.80;99.90;;;;;;5070777;28;20089;-52
2022/07/13 04:06:25;;;;;;;8.15;5.63;;;20.80;99.90;;;;;;5070966;28;20120;-51
2022/07/13 04:08:51;;;;;;;6.55;5.55;;;20.80;99.90;;;;;;5070852;28;20098;-51
2022/07/13 04:11:17;;;;;;;6.93;5.30;;;20.80;99.90;;;;;;5070662;28;20071;-49
2022/07/13 04:13:43;;;;;;;7.63;5.20;;;20.80;99.90;;;;;;5071053;28;20075;-49
2022/07/13 04:16:09;;;;;;;8.10;5.40;;;20.80;99.90;;;;;;5070094;28;20087;-51
2022/07/13 04:18:35;;;;;;;6.32;5.20;;;20.80;99.90;;;;;;5070836;28;20094;-51
2022/07/13 04:21:00;;;;;;;6.47;5.05;;;20.80;99.90;;;;;;5070669;28;20110;-51
2022/07/13 04:23:29;;;;;;;6.45;4.82;;;20.70;99.90;;;;;;5070532;28;20040;-53
2022/07/13 04:25:54;;;;;;;6.47;4.63;;;20.70;99.90;;;;;;5070786;28;20208;-51
2022/07/13 04:28:20;;;;;;;8.40;4.88;;;20.80;99.90;;;;;;5070791;28;20130;-51
2022/07/13 04:30:46;;;;;;;7.60;4.95;;;20.70;99.90;;;;;;5070297;28;20040;-52
2022/07/13 04:33:11;;;;;;;7.45;5.03;;;20.70;99.90;;;;;;5070453;28;20037;-51
2022/07/13 04:35:37;;;;;;;7.85;5.80;;;20.70;99.90;;;;;;5071032;28;20032;-50
2022/07/13 04:38:03;;;;;;;6.90;5.63;;;20.70;99.90;;;;;;5074552;28;20115;-48
2022/07/13 04:40:28;;;;;;;8.38;5.00;;;20.70;99.90;;;;;;5074630;28;20044;-52
2022/07/13 04:42:54;;;;;;;7.90;4.55;;;20.70;99.90;;;;;;5074595;28;20055;-48
2022/07/13 04:45:20;;;;;;;5.90;4.80;;;20.70;99.90;;;;;;5074704;28;20161;-52
2022/07/13 04:47:46;;;;;;;6.18;4.55;;;20.70;99.90;;;;;;5073965;28;20559;-50
2022/07/13 04:50:12;;;;;;;6.00;4.63;;;20.70;99.90;;;;;;5074503;28;20499;-49
2022/07/13 04:52:37;;;;;;;6.97;4.30;;;20.70;99.90;;;;;;5074434;28;20028;-48
2022/07/13 04:55:03;;;;;;;7.97;4.57;;;20.70;99.90;;;;;;5073994;28;20039;-49
2022/07/13 04:57:29;;;;;;;7.75;4.80;;;20.70;99.90;;;;;;5074098;28;20109;-51
2022/07/13 04:59:55;;;;;;;6.53;4.00;;;20.70;99.90;;;;;;5074326;28;20040;-48
2022/07/13 05:02:21;;;;;;;6.68;4.50;;;20.70;99.90;;;;;;5073371;28;20037;-48
2022/07/13 05:04:47;;;;;;;6.63;4.30;;;20.70;99.90;;;;;;5073954;28;20040;-50
2022/07/13 05:07:12;;;;;;;5.70;4.15;;;20.80;99.90;;;;;;5073745;28;20494;-49
2022/07/13 05:09:38;;;;;;;5.93;4.18;;;20.80;99.90;;;;;;5073945;28;20040;-48
2022/07/13 05:12:04;;;;;;;5.47;4.18;;;20.90;99.90;;;;;;5073702;28;20055;-51
2022/07/13 05:14:30;;;;;;;5.15;3.90;;;20.90;99.90;;;;;;5073666;28;20040;-48
2022/07/13 05:16:56;;;;;;;6.47;4.50;;;21.00;99.90;;;;;;5073679;28;20062;-50
2022/07/13 05:19:21;;;;;;;5.95;4.40;;;21.00;99.90;;;;;;5074004;28;20036;-49
2022/07/13 05:21:47;;;;;;;5.72;4.15;;;21.00;99.90;;;;;;5073654;28;20041;-52
2022/07/13 05:24:12;;;;;;;5.38;4.10;;;21.10;99.90;;;;;;5073830;28;20111;-52
2022/07/13 05:26:38;;;;;;;6.55;4.10;;;21.10;99.90;;;;;;5073377;28;20040;-52
2022/07/13 05:29:06;;;;;;;6.28;3.88;;;21.20;99.90;;;;;;5073479;28;20043;-51
2022/07/13 05:31:31;;;;;;;4.93;3.15;;;21.30;99.90;;;;;;5073182;28;20111;-51
2022/07/13 05:33:57;;;;;;;5.30;3.70;;;21.40;99.90;;;;;;5073786;28;20123;-50
2022/07/13 05:36:23;;;;;;;7.07;3.40;;;21.40;99.90;;;;;;5073699;28;20030;-51
2022/07/13 05:38:48;;;;;;;11.18;3.67;;;21.40;99.90;;;;;;5073693;28;20032;-54
2022/07/13 05:41:14;;;;;;;7.82;3.70;;;21.50;99.90;;;;;;5073309;28;20041;-51
2022/07/13 05:43:41;;;;;;;7.00;3.55;;;21.50;99.90;;;;;;5055333;28;20032;-49
2022/07/13 05:46:07;;;;;;;7.10;3.70;;;21.60;99.90;;;;;;5073316;28;20039;-51
2022/07/13 05:48:34;;;;;;;6.53;3.80;;;21.60;99.90;;;;;;5072632;28;20047;-48
2022/07/13 05:51:00;;;;;;;6.32;3.70;;;21.70;99.90;;;;;;5073221;28;20040;-52
2022/07/13 05:53:26;;;;;;;6.95;3.80;;;21.70;99.90;;;;;;5072956;28;20044;-50
2022/07/13 05:55:51;;;;;;;5.05;3.78;;;21.80;99.90;;;;;;5073441;28;20040;-51
2022/07/13 05:58:17;;;;;;;6.57;3.90;;;21.80;99.90;;;;;;5073002;28;20101;-52
2022/07/13 06:00:43;;;;;;;6.85;4.40;;;21.90;99.90;;;;;;5072692;28;20052;-49
2022/07/13 06:03:08;;;;;;;7.25;4.50;;;21.90;99.90;;;;;;5073264;28;20032;-52
2022/07/13 06:05:34;;;;;;;8.35;4.75;;;22.00;99.90;;;;;;5072718;28;20068;-49
2022/07/13 06:08:00;;;;;;;9.13;5.13;;;22.10;99.90;;;;;;5074279;28;20037;-51
2022/07/13 06:10:30;;;;;;;6.00;4.70;;;22.10;99.90;;;;;;5072256;28;20476;-52
2022/07/13 06:12:55;;;;;;;7.55;4.43;;;22.20;99.90;;;;;;5071679;28;20094;-52
2022/07/13 06:15:21;;;;;;;6.47;4.95;;;22.20;99.90;;;;;;5068601;28;20036;-50
2022/07/13 06:17:47;;;;;;;10.80;5.20;;;22.20;99.90;;;;;;5072107;28;20044;-50
2022/07/13 06:20:12;;;;;;;11.77;5.65;;;22.20;99.90;;;;;;5054086;28;20058;-51
2022/07/13 06:22:38;;;;;;;9.45;5.68;;;22.30;99.90;;;;;;5073029;28;20790;-48
2022/07/13 06:25:04;;;;;;;8.02;5.60;;;22.40;99.90;;;;;;5072431;28;20087;-47
2022/07/13 06:27:30;;;;;;;8.57;5.85;;;22.50;99.90;;;;;;5072481;28;20036;-48
2022/07/13 06:29:56;;;;;;;8.38;5.70;;;22.60;99.90;;;;;;5072805;28;20079;-47
2022/07/13 06:32:21;;;;;;;10.48;6.32;;;22.70;99.90;;;;;;5071999;28;20041;-49
2022/07/13 06:34:47;;;;;;;9.68;6.90;;;22.80;99.90;;;;;;5072347;28;20040;-49
2022/07/13 06:37:13;;;;;;;9.90;6.18;;;22.80;99.90;;;;;;5072477;28;20107;-49
2022/07/13 06:39:38;;;;;;;12.05;6.78;;;22.90;99.90;;;;;;5071848;28;20437;-51
2022/07/13 06:42:04;;;;;;;10.45;7.40;;;23.00;99.90;;;;;;5072828;28;20037;-52
2022/07/13 06:44:30;;;;;;;9.30;6.60;;;23.00;99.90;;;;;;5072252;28;20395;-51
2022/07/13 06:46:59;;;;;;;15.52;7.10;;;23.00;99.90;;;;;;5052565;28;20050;-50
2022/07/13 06:49:26;;;;;;;11.10;7.35;;;23.00;99.90;;;;;;5070680;28;20101;-48
2022/07/13 06:51:52;;;;;;;10.40;7.60;;;23.00;99.90;;;;;;5069637;28;20032;-53
2022/07/13 06:54:17;;;;;;;10.57;7.65;;;23.10;99.90;;;;;;5066584;28;20055;-52
2022/07/13 06:56:43;;;;;;;11.55;8.35;;;23.10;99.90;;;;;;5046909;28;20047;-53
2022/07/13 06:59:09;;;;;;;10.20;8.45;;;23.00;99.90;;;;;;5064151;28;20047;-52
2022/07/13 07:01:34;;;;;;;10.90;8.48;;;23.00;99.90;;;;;;5064178;28;20098;-53
2022/07/13 07:04:00;;;;;;;12.13;8.52;;;23.00;99.90;;;;;;5064494;28;20078;-49
2022/07/13 07:06:25;;;;;;;11.43;8.63;;;23.10;99.90;;;;;;5064786;28;20463;-49
2022/07/13 07:08:51;;;;;;;11.15;8.52;;;23.10;99.90;;;;;;5064626;28;20089;-51
2022/07/13 07:11:17;;;;;;;10.25;8.05;;;23.30;99.90;;;;;;5064435;28;20119;-52
2022/07/13 07:13:42;;;;;;;10.52;7.88;;;23.40;99.90;;;;;;5064580;28;20051;-49
2022/07/13 07:16:08;;;;;;;10.77;7.80;;;23.40;99.90;;;;;;5064464;28;20029;-48
2022/07/13 07:18:34;;;;;;;10.88;7.50;;;23.50;99.90;;;;;;5064336;28;20212;-52
2022/07/13 07:21:00;;;;;;;12.02;7.72;;;23.50;99.90;;;;;;5064572;28;20045;-49
2022/07/13 07:23:26;;;;;;;11.13;7.90;;;23.40;99.90;;;;;;5064058;28;20571;-51
2022/07/13 07:25:52;;;;;;;13.52;6.95;;;23.40;99.90;;;;;;5064434;28;20028;-49
2022/07/13 07:28:17;;;;;;;10.25;7.45;;;23.50;99.90;;;;;;5064144;28;20481;-51
2022/07/13 07:30:43;;;;;;;10.50;7.20;;;23.50;99.90;;;;;;5063082;28;20131;-53
2022/07/13 07:33:09;;;;;;;19.90;8.20;;;23.40;99.90;;;;;;5063951;28;20037;-53
2022/07/13 07:35:34;;;;;;;10.13;7.60;;;23.40;99.90;;;;;;5063755;28;20078;-53
2022/07/13 07:38:00;;;;;;;12.82;8.55;;;23.40;99.90;;;;;;5063647;28;20446;-50
2022/07/13 07:40:26;;;;;;;11.13;7.30;;;23.40;99.90;;;;;;5063055;28;20043;-49
2022/07/13 07:42:53;;;;;;;13.60;7.57;;;23.50;99.90;;;;;;5064120;28;20380;-52
2022/07/13 07:45:18;;;;;;;13.57;7.72;;;23.60;99.90;;;;;;5063725;28;20032;-49
2022/07/13 07:47:44;;;;;;;10.52;7.47;;;23.60;99.90;;;;;;5064655;28;20063;-51
2022/07/13 07:50:11;;;;;;;10.45;7.32;;;23.60;99.90;;;;;;5066018;28;20491;-50
2022/07/13 07:52:37;;;;;;;11.95;6.65;;;23.60;99.90;;;;;;5063948;28;20075;-49
2022/07/13 07:55:03;;;;;;;9.57;6.70;;;23.60;99.90;;;;;;5065340;28;20539;-49
2022/07/13 07:57:29;;;;;;;10.98;6.80;;;23.80;99.90;;;;;;5065927;28;20056;-49
2022/07/13 07:59:55;;;;;;;9.25;6.60;;;23.90;99.90;;;;;;5067337;28;20491;-47
2022/07/13 08:02:20;;;;;;;10.80;6.57;;;23.90;99.90;;;;;;5063778;28;20079;-50
2022/07/13 08:04:47;;;;;;;11.48;6.78;;;23.80;99.90;;;;;;5063208;28;20440;-52
2022/07/13 08:07:12;;;;;;;11.82;7.30;;;24.00;99.90;;;;;;5062898;28;20044;-50
2022/07/13 08:09:38;;;;;;;9.15;6.50;;;24.00;99.90;;;;;;5061769;28;20121;-52
2022/07/13 08:12:04;;;;;;;9.75;6.80;;;24.00;99.90;;;;;;5061218;28;20052;-49
2022/07/13 08:14:30;;;;;;;14.40;7.05;;;23.90;99.90;;;;;;5061708;28;20338;-51
2022/07/13 08:16:57;;;;;;;10.30;7.03;;;24.10;99.90;;;;;;5062052;28;20126;-50
2022/07/13 08:19:24;;;;;;;11.15;6.53;;;24.10;99.90;;;;;;5061617;28;20920;-48
2022/07/13 08:21:50;;;;;;;12.30;6.80;;;24.20;99.90;;;;;;5062349;28;20105;-51
2022/07/13 08:24:16;;;;;;;11.23;6.43;;;24.30;99.90;;;;;;5061737;28;20475;-51
2022/07/13 08:26:42;;;;;;;12.75;6.30;;;24.30;99.90;;;;;;5061597;28;20040;-49
2022/07/13 08:29:07;;;;;;;10.70;6.25;;;24.30;99.90;;;;;;5050091;28;20151;-49
2022/07/13 08:31:33;;;;;;;12.82;5.47;;;24.30;99.90;;;;;;5052849;28;20045;-53
2022/07/13 08:39:28;;;;;;;8.63;4.70;;;24.40;99.90;;;;;;5061004;28;20044;-52
2022/07/13 08:41:58;;;;;;;8.23;4.53;;;24.50;99.90;;;;;;5061741;28;20080;-50
2022/07/13 08:44:24;;;;;;;8.70;4.45;;;24.60;99.90;;;;;;5051680;28;20105;-52
2022/07/13 08:46:50;;;;;;;8.10;4.85;;;24.60;99.90;;;;;;5061798;28;20492;-52
2022/07/13 08:49:16;;;;;;;6.70;4.57;;;24.60;99.90;;;;;;5061618;28;20174;-51
2022/07/13 08:51:44;;;;;;;6.68;4.78;;;24.70;99.90;;;;;;5061124;28;20051;-52
2022/07/13 08:54:10;;;;;;;6.25;4.45;;;24.70;99.90;;;;;;5061414;28;20035;-50
2022/07/13 08:56:36;;;;;;;9.13;5.00;;;24.70;99.90;;;;;;5061158;28;20040;-52
2022/07/13 08:59:01;;;;;;;8.25;4.55;;;24.80;99.90;;;;;;5060718;28;20418;-53
2022/07/13 09:01:27;;;;;;;9.95;4.78;;;24.80;99.90;;;;;;5060666;28;20565;-50
2022/07/13 09:03:53;;;;;;;8.90;5.43;;;25.00;99.90;;;;;;5059011;28;20021;-50
2022/07/13 09:06:42;;;;;;;8.18;4.72;;;24.90;99.90;;;;;;5060270;28;20032;-52
2022/07/13 09:09:22;;;;;;;7.45;4.88;;;25.10;99.90;;;;;;5060133;28;20041;-50
2022/07/13 09:11:48;;;;;;;8.30;4.50;;;25.10;99.90;;;;;;5059853;28;20074;-52
2022/07/13 09:14:26;;;;;;;6.90;4.60;;;25.50;99.90;;;;;;5060677;28;20040;-50
2022/07/13 09:16:52;;;;;;;7.78;4.88;;;25.60;99.90;;;;;;5062119;28;20040;-51
2022/07/13 09:19:18;;;;;;;8.68;4.63;;;25.70;99.90;;;;;;5044896;28;20489;-52
2022/07/13 09:21:44;;;;;;;8.13;4.10;;;25.90;99.90;;;;;;5059970;28;20044;-51
2022/07/13 09:24:09;;;;;;;15.45;5.15;;;26.20;99.90;;;;;;5063205;28;20035;-48
2022/07/13 09:26:46;;;;;;;11.95;5.10;;;26.10;99.90;;;;;;5055074;28;20044;-51
2022/07/13 09:29:12;;;;;;;9.27;4.90;;;26.20;99.90;;;;;;5063614;28;20040;-51
2022/07/13 09:31:55;;;;;;;8.38;4.88;;;26.30;99.90;;;;;;5061923;28;20447;-53
2022/07/13 09:34:22;;;;;;;7.45;4.90;;;26.30;99.90;;;;;;5064799;28;20030;-53
2022/07/13 09:37:09;;;;;;;8.07;4.22;;;26.60;99.90;;;;;;5065098;28;20048;-51
2022/07/13 09:39:34;;;;;;;8.10;4.85;;;26.80;99.90;;;;;;5064362;28;20090;-51
2022/07/13 09:42:00;;;;;;;7.13;4.75;;;26.70;99.90;;;;;;5063207;28;20480;-51
2022/07/13 09:47:12;;;;;;;8.77;5.20;;;27.00;99.90;;;;;;5063317;28;20047;-51
2022/07/13 09:49:42;;;;;;;9.00;5.30;;;27.00;99.90;;;;;;5047374;28;20045;-53
2022/07/13 09:52:17;;;;;;;7.53;4.40;;;27.00;99.90;;;;;;5063888;28;20117;-50
2022/07/13 09:54:44;;;;;;;8.18;4.80;;;27.00;99.90;;;;;;5064487;28;20483;-52
2022/07/13 09:57:13;;;;;;;6.60;4.45;;;27.10;99.90;;;;;;5065493;28;20105;-51
2022/07/13 09:59:40;;;;;;;9.48;4.60;;;27.10;99.90;;;;;;5065369;28;20101;-52
2022/07/13 10:02:07;;;;;;;11.55;5.20;;;27.10;99.90;;;;;;5047316;28;20044;-50
2022/07/13 10:04:35;;;;;;;7.13;4.38;;;26.90;99.90;;;;;;5065581;28;20049;-52
2022/07/13 10:07:01;;;;;;;9.80;4.25;;;27.10;99.90;;;;;;5047898;28;20048;-51
2022/07/13 10:09:30;;;;;;;9.60;3.85;;;27.10;99.90;;;;;;5065343;28;20041;-53
2022/07/13 10:11:57;;;;;;;7.75;4.00;;;27.10;99.90;;;;;;5065218;28;20044;-49
2022/07/13 10:14:24;;;;;;;7.25;4.25;;;27.20;99.90;;;;;;5064827;28;20079;-52
2022/07/13 10:16:52;;;;;;;7.18;4.43;;;27.30;99.90;;;;;;5064641;28;20037;-52
2022/07/13 10:19:19;;;;;;;7.38;3.92;;;27.40;99.90;;;;;;5065305;28;20040;-54
2022/07/13 10:22:03;;;;;;;6.15;3.80;;;27.30;99.90;;;;;;5065406;28;20107;-52
2022/07/13 10:24:29;;;;;;;;;;;27.50;99.90;;;;;;5065543;28;20074;-53
2022/07/13 10:27:25;;;;;;;8.63;4.45;;;27.70;99.90;;;;;;5065196;28;20730;-51
2022/07/13 10:30:06;;;;;;;5.47;3.45;;;27.60;99.90;;;;;;5064601;28;20131;-50
2022/07/13 10:32:38;;;;;;;9.23;4.15;;;27.60;99.90;;;;;;5063908;28;20463;-50
2022/07/13 10:35:08;;;;;;;7.15;3.55;;;27.50;99.90;;;;;;5064233;28;20056;-54
2022/07/13 10:37:55;;;;;;;6.75;3.40;;;27.60;99.90;;;;;;5064818;28;20029;-52
2022/07/13 10:40:22;;;;;;;7.57;3.45;;;27.60;99.90;;;;;;5064597;28;20040;-54
2022/07/13 10:42:53;;;;;;;7.32;2.90;;;27.60;99.90;;;;;;5065119;28;20032;-50
2022/07/13 10:45:34;;;;;;;5.88;2.50;;;27.60;99.90;;;;;;5064943;28;20043;-50
2022/07/13 10:48:06;;;;;;;10.43;3.13;;;27.80;99.90;;;;;;5066497;28;20040;-54
2022/07/13 10:50:43;;;;;;;3.83;2.20;;;27.90;99.90;;;;;;5068362;28;20384;-51
2022/07/13 10:53:09;;;;;;;9.77;3.50;;;28.10;99.90;;;;;;5069132;28;20109;-52
2022/07/13 10:55:35;;;;;;;7.97;3.33;;;27.80;99.90;;;;;;5068859;28;20111;-51
2022/07/13 10:58:32;;;;;;;5.20;2.95;;;27.80;99.90;;;;;;5066247;28;20496;-53
2022/07/13 11:01:38;;;;;;;6.65;3.00;;;27.80;99.90;;;;;;5058913;28;20078;-52
2022/07/13 11:04:05;;;;;;;6.40;2.40;;;27.90;99.90;;;;;;5063393;28;20036;-53
2022/07/13 11:06:32;;;;;;;7.18;2.75;;;28.00;99.90;;;;;;5060322;28;20036;-54
2022/07/13 11:09:13;;;;;;;7.38;2.38;;;27.90;99.90;;;;;;5061417;28;20460;-53
2022/07/13 11:11:47;;;;;;;6.47;3.20;;;28.10;99.90;;;;;;5060107;28;20049;-51
2022/07/13 11:14:33;;;;;;;;;;;28.00;99.90;;;;;;5062123;28;20445;-53
2022/07/13 11:17:20;;;;;;;5.25;2.17;;;28.30;99.90;;;;;;5050264;28;19924;-53
2022/07/13 11:19:52;;;;;;;6.30;2.42;;;28.50;99.90;;;;;;5064574;28;20040;-53
2022/07/13 11:22:22;;;;;;;6.57;2.20;;;28.60;99.90;;;;;;5067505;28;20396;-53
2022/07/13 11:25:16;;;;;;;6.72;2.47;;;28.60;99.90;;;;;;5065783;28;20036;-50
2022/07/13 11:28:26;;;;;;;6.73;2.57;;;28.50;99.60;;;;;;5070303;28;20060;-54
2022/07/13 11:30:54;;;;;;;4.00;1.90;;;28.70;99.30;;;;;;5048624;28;20060;-53
2022/07/13 11:33:20;;;;;;;5.45;1.92;;;28.70;98.70;;;;;;5069532;28;20550;-53
2022/07/13 11:35:47;;;;;;;7.68;2.70;;;28.40;99.00;;;;;;5070960;28;20123;-53
2022/07/13 11:38:16;;;;;;;5.28;1.80;;;28.70;98.00;;;;;;5071053;28;20483;-53
2022/07/13 11:40:43;;;;;;;4.05;1.63;;;28.70;98.20;;;;;;5070588;28;20101;-52
2022/07/13 11:43:10;;;;;;;4.72;1.52;;;28.90;98.20;;;;;;5070590;28;20483;-52
2022/07/13 11:45:39;;;;;;;4.95;1.77;;;28.90;97.60;;;;;;5069713;28;20133;-53
2022/07/13 11:48:06;;;;;;;3.88;1.63;;;28.90;97.10;;;;;;5070787;28;20040;-54
2022/07/13 11:50:39;;;;;;;4.10;1.52;;;28.80;96.90;;;;;;5065607;28;20040;-55
2022/07/13 11:53:05;;;;;;;4.85;2.58;;;29.10;97.20;;;;;;5069172;28;20043;-52
2022/07/13 11:55:31;;;;;;;6.32;2.40;;;28.80;97.30;;;;;;5070582;28;20150;-51
2022/07/13 11:57:59;;;;;;;4.47;2.00;;;28.80;96.90;;;;;;5070383;28;20128;-50
2022/07/13 12:00:24;;;;;;;4.63;1.63;;;29.10;96.90;;;;;;5070708;28;20039;-52
2022/07/13 12:02:51;;;;;;;2.80;1.45;;;29.20;97.00;;;;;;5070205;28;20403;-52
2022/07/13 12:05:25;;;;;;;3.38;1.80;;;29.20;95.80;;;;;;5070938;28;20118;-51
2022/07/13 12:08:02;;;;;;;4.20;1.60;;;29.40;95.80;;;;;;5071018;28;20468;-52
2022/07/13 12:10:28;;;;;;;5.65;3.00;;;29.70;96.70;;;;;;5071136;28;20094;-51
2022/07/13 12:12:54;;;;;;;5.85;2.78;;;29.20;98.30;;;;;;5070843;28;20453;-51
2022/07/13 12:15:20;;;;;;;6.60;3.15;;;28.90;97.70;;;;;;5051928;28;20024;-53
2022/07/13 12:17:53;;;;;;;9.00;3.50;;;29.00;98.20;;;;;;5070886;28;20068;-53
2022/07/13 12:20:23;;;;;;;5.30;2.50;;;29.20;97.50;;;;;;5071027;28;20470;-53
2022/07/13 12:22:50;;;;;;;4.75;2.47;;;29.40;97.50;;;;;;5071037;28;20044;-52
2022/07/13 12:25:26;;;;;;;3.40;1.90;;;29.20;96.40;;;;;;5070449;28;20129;-52
2022/07/13 12:27:52;;;;;;;3.00;1.45;;;29.60;96.00;;;;;;5069877;28;20117;-53
2022/07/13 12:30:18;;;;;;;5.38;1.70;;;29.50;95.40;;;;;;5070493;28;20124;-50
2022/07/13 12:33:03;;;;;;;3.72;1.70;;;29.60;96.10;;;;;;5070419;28;20082;-50
2022/07/13 12:35:35;;;;;;;3.60;1.75;;;29.60;95.10;;;;;;5070661;28;20493;-51
2022/07/13 12:38:08;;;;;;;3.63;1.70;;;29.20;94.30;;;;;;5070601;28;20032;-51
2022/07/13 12:40:46;;;;;;;5.28;1.50;;;29.10;94.10;;;;;;5052666;28;20115;-50
2022/07/13 12:43:16;;;;;;;3.67;1.35;;;29.50;94.40;;;;;;5070906;28;20097;-51
2022/07/13 12:45:45;;;;;;;2.40;1.30;;;29.10;92.90;;;;;;5070875;28;20557;-52
2022/07/13 12:48:18;;;;;;;3.70;1.60;;;29.20;93.30;;;;;;5070438;28;20047;-49
2022/07/13 12:51:00;;;;;;;3.83;1.40;;;29.00;93.60;;;;;;5070830;28;20106;-52
2022/07/13 12:53:53;;;;;;;3.85;1.38;;;29.30;93.40;;;;;;5070535;28;20082;-52
2022/07/13 12:56:24;;;;;;;3.05;1.60;;;29.20;94.00;;;;;;5070636;28;20507;-54